sensor_id;sensor_type;location;lat;lon;timestamp;temperature;humidity
7762;DHT22;3925;48.636;9.516;2023-02-18T00:00:05;11.90;99.90
7762;DHT22;3925;48.636;9.516;2023-02-18T00:02:32;11.80;99.90
7762;DHT22;3925;48.636;9.516;2023-02-18T00:04:59;11.90;99.90
7762;DHT22;3925;48.636;9.516;2023-02-18T00:07:26;11.80;99.90
7762;DHT22;3925;48.636;9.516;2023-02-18T00:09:53;11.90;99.90
7762;DHT22;3925;48.636;9.516;2023-02-18T00:12:21;11.90;99.90
7762;DHT22;3925;48.636;9.516;2023-02-18T00:14:48;11.90;99.90
7762;DHT22;3925;48.636;9.516;2023-02-18T00:17:15;11.90;99.90
7762;DHT22;3925;48.636;9.516;2023-02-18T00:19:42;11.90;99.90
7762;DHT22;3925;48.636;9.516;2023-02-18T00:22:09;11.90;99.90
7762;DHT22;3925;48.636;9.516;2023-02-18T00:24:37;11.90;99.90
7762;DHT22;3925;48.636;9.516;2023-02-18T00:27:03;11.90;99.90
7762;DHT22;3925;48.636;9.516;2023-02-18T00:29:33;11.80;99.90
7762;DHT22;3925;48.636;9.516;2023-02-18T00:32:00;11.90;99.90
7762;DHT22;3925;48.636;9.516;2023-02-18T00:34:27;11.90;99.90
7762;DHT22;3925;48.636;9.516;2023-02-18T00:36:53;11.90;99.90
7762;DHT22;3925;48.636;9.516;2023-02-18T00:39:20;11.90;99.90
7762;DHT22;3925;48.636;9.516;2023-02-18T00:41:47;11.90;99.90
7762;DHT22;3925;48.636;9.516;2023-02-18T00:44:14;11.90;99.90
7762;DHT22;3925;48.636;9.516;2023-02-18T00:46:42;11.90;99.90
7762;DHT22;3925;48.636;9.516;2023-02-18T00:49:12;11.90;99.90
7762;DHT22;3925;48.636;9.516;2023-02-18T00:51:39;11.90;99.90
7762;DHT22;3925;48.636;9.516;2023-02-18T00:54:06;11.90;99.90
7762;DHT22;3925;48.636;9.516;2023-02-18T00:56:33;11.90;99.90
7762;DHT22;3925;48.636;9.516;2023-02-18T00:59:00;11.90;99.90
7762;DHT22;3925;48.636;9.516;2023-02-18T01:01:27;11.90;99.90
7762;DHT22;3925;48.636;9.516;2023-02-18T01:03:55;11.90;99.90
7762;DHT22;3925;48.636;9.516;2023-02-18T01:06:22;11.90;99.90
7762;DHT22;3925;48.636;9.516;2023-02-18T01:08:49;11.90;99.90
7762;DHT22;3925;48.636;9.516;2023-02-18T01:11:16;11.80;99.90
7762;DHT22;3925;48.636;9.516;2023-02-18T01:13:43;11.80;99.90
7762;DHT22;3925;48.636;9.516;2023-02-18T01:16:10;11.80;99.90
7762;DHT22;3925;48.636;9.516;2023-02-18T01:18:38;11.90;99.90
7762;DHT22;3925;48.636;9.516;2023-02-18T01:21:07;11.90;99.90
7762;DHT22;3925;48.636;9.516;2023-02-18T01:23:34;11.90;99.90
7762;DHT22;3925;48.636;9.516;2023-02-18T01:26:01;11.90;99.90
7762;DHT22;3925;48.636;9.516;2023-02-18T01:28:27;11.90;99.90
7762;DHT22;3925;48.636;9.516;2023-02-18T01:30:54;11.80;99.90
7762;DHT22;3925;48.636;9.516;2023-02-18T01:33:21;11.90;99.90
7762;DHT22;3925;48.636;9.516;2023-02-18T01:35:48;11.90;99.90
7762;DHT22;3925;48.636;9.516;2023-02-18T01:38:17;11.90;99.90
7762;DHT22;3925;48.636;9.516;2023-02-18T01:40:46;11.90;99.90
7762;DHT22;3925;48.636;9.516;2023-02-18T01:43:14;11.90;99.90
7762;DHT22;3925;48.636;9.516;2023-02-18T01:45:58;11.90;99.90
7762;DHT22;3925;48.636;9.516;2023-02-18T01:48:28;11.90;99.90
7762;DHT22;3925;48.636;9.516;2023-02-18T01:50:59;11.90;99.90
7762;DHT22;3925;48.636;9.516;2023-02-18T01:53:36;11.90;99.90
7762;DHT22;3925;48.636;9.516;2023-02-18T01:56:06;11.90;99.90
7762;DHT22;3925;48.636;9.516;2023-02-18T01:58:34;11.90;99.90
7762;DHT22;3925;48.636;9.516;2023-02-18T02:01:02;11.90;99.90
7762;DHT22;3925;48.636;9.516;2023-02-18T02:03:29;11.90;99.90
7762;DHT22;3925;48.636;9.516;2023-02-18T02:05:56;11.90;99.90
7762;DHT22;3925;48.636;9.516;2023-02-18T02:08:23;11.90;99.90
7762;DHT22;3925;48.636;9.516;2023-02-18T02:11:03;11.90;99.90
7762;DHT22;3925;48.636;9.516;2023-02-18T02:13:42;11.90;99.90
7762;DHT22;3925;48.636;9.516;2023-02-18T02:16:14;11.90;99.90
7762;DHT22;3925;48.636;9.516;2023-02-18T02:18:55;11.90;99.90
7762;DHT22;3925;48.636;9.516;2023-02-18T02:21:49;11.90;99.90
7762;DHT22;3925;48.636;9.516;2023-02-18T02:24:47;11.80;99.90
7762;DHT22;3925;48.636;9.516;2023-02-18T02:27:24;11.90;99.90
7762;DHT22;3925;48.636;9.516;2023-02-18T02:33:23;11.80;99.90
7762;DHT22;3925;48.636;9.516;2023-02-18T02:36:02;11.80;99.90
7762;DHT22;3925;48.636;9.516;2023-02-18T02:38:37;11.90;99.90
7762;DHT22;3925;48.636;9.516;2023-02-18T02:41:15;11.80;99.90
7762;DHT22;3925;48.636;9.516;2023-02-18T02:43:51;11.80;99.90
7762;DHT22;3925;48.636;9.516;2023-02-18T02:46:26;11.80;99.90
7762;DHT22;3925;48.636;9.516;2023-02-18T02:49:01;11.80;99.90
7762;DHT22;3925;48.636;9.516;2023-02-18T02:51:33;11.80;99.90
7762;DHT22;3925;48.636;9.516;2023-02-18T02:54:10;11.80;99.90
7762;DHT22;3925;48.636;9.516;2023-02-18T02:56:38;11.80;99.90
7762;DHT22;3925;48.636;9.516;2023-02-18T02:59:09;11.80;99.90
7762;DHT22;3925;48.636;9.516;2023-02-18T03:01:43;11.80;99.90
7762;DHT22;3925;48.636;9.516;2023-02-18T03:07:33;11.80;99.90
7762;DHT22;3925;48.636;9.516;2023-02-18T03:10:16;11.80;99.90
7762;DHT22;3925;48.636;9.516;2023-02-18T03:12:55;11.80;99.90
7762;DHT22;3925;48.636;9.516;2023-02-18T03:15:31;11.80;99.90
7762;DHT22;3925;48.636;9.516;2023-02-18T03:18:04;11.90;99.90
7762;DHT22;3925;48.636;9.516;2023-02-18T03:20:36;11.80;99.90
7762;DHT22;3925;48.636;9.516;2023-02-18T03:23:08;11.80;99.90
7762;DHT22;3925;48.636;9.516;2023-02-18T03:25:37;11.80;99.90
7762;DHT22;3925;48.636;9.516;2023-02-18T03:28:07;11.80;99.90
7762;DHT22;3925;48.636;9.516;2023-02-18T03:30:39;11.80;99.90
7762;DHT22;3925;48.636;9.516;2023-02-18T03:33:09;11.80;99.90
7762;DHT22;3925;48.636;9.516;2023-02-18T03:35:37;11.80;99.90
7762;DHT22;3925;48.636;9.516;2023-02-18T03:38:10;11.80;99.90
7762;DHT22;3925;48.636;9.516;2023-02-18T03:40:38;11.80;99.90
7762;DHT22;3925;48.636;9.516;2023-02-18T03:43:05;11.90;99.90
7762;DHT22;3925;48.636;9.516;2023-02-18T03:45:31;11.80;99.90
7762;DHT22;3925;48.636;9.516;2023-02-18T03:47:58;11.90;99.90
7762;DHT22;3925;48.636;9.516;2023-02-18T03:50:25;11.90;99.90
7762;DHT22;3925;48.636;9.516;2023-02-18T03:52:52;11.90;99.90
7762;DHT22;3925;48.636;9.516;2023-02-18T03:55:20;11.90;99.90
7762;DHT22;3925;48.636;9.516;2023-02-18T03:57:47;11.90;99.90
7762;DHT22;3925;48.636;9.516;2023-02-18T04:00:14;11.90;99.90
7762;DHT22;3925;48.636;9.516;2023-02-18T04:02:41;11.90;99.90
7762;DHT22;3925;48.636;9.516;2023-02-18T04:05:08;11.90;99.90
7762;DHT22;3925;48.636;9.516;2023-02-18T04:07:35;11.80;99.90
7762;DHT22;3925;48.636;9.516;2023-02-18T04:10:03;11.90;99.90
7762;DHT22;3925;48.636;9.516;2023-02-18T04:12:32;11.80;99.90
7762;DHT22;3925;48.636;9.516;2023-02-18T04:14:58;11.90;99.90
7762;DHT22;3925;48.636;9.516;2023-02-18T04:17:25;11.90;99.90
7762;DHT22;3925;48.636;9.516;2023-02-18T04:19:52;11.90;99.90
7762;DHT22;3925;48.636;9.516;2023-02-18T04:22:19;11.90;99.90
7762;DHT22;3925;48.636;9.516;2023-02-18T04:24:46;11.80;99.90
7762;DHT22;3925;48.636;9.516;2023-02-18T04:27:13;11.80;99.90
7762;DHT22;3925;48.636;9.516;2023-02-18T04:29:41;11.80;99.90
7762;DHT22;3925;48.636;9.516;2023-02-18T04:32:08;11.80;99.90
7762;DHT22;3925;48.636;9.516;2023-02-18T04:34:35;11.80;99.90
7762;DHT22;3925;48.636;9.516;2023-02-18T04:37:01;11.70;99.90
7762;DHT22;3925;48.636;9.516;2023-02-18T04:39:28;11.60;99.90
7762;DHT22;3925;48.636;9.516;2023-02-18T04:41:55;11.60;99.90
7762;DHT22;3925;48.636;9.516;2023-02-18T04:44:22;11.60;99.90
7762;DHT22;3925;48.636;9.516;2023-02-18T04:46:50;11.50;99.90
7762;DHT22;3925;48.636;9.516;2023-02-18T04:49:17;11.50;99.90
7762;DHT22;3925;48.636;9.516;2023-02-18T04:51:44;11.40;99.90
7762;DHT22;3925;48.636;9.516;2023-02-18T04:54:11;11.40;99.90
7762;DHT22;3925;48.636;9.516;2023-02-18T04:56:37;11.30;99.90
7762;DHT22;3925;48.636;9.516;2023-02-18T04:59:04;11.40;99.90
7762;DHT22;3925;48.636;9.516;2023-02-18T05:01:31;11.30;99.90
7762;DHT22;3925;48.636;9.516;2023-02-18T05:03:59;11.30;99.90
7762;DHT22;3925;48.636;9.516;2023-02-18T05:06:26;11.30;99.90
7762;DHT22;3925;48.636;9.516;2023-02-18T05:08:53;11.30;99.90
7762;DHT22;3925;48.636;9.516;2023-02-18T05:11:20;11.30;99.90
7762;DHT22;3925;48.636;9.516;2023-02-18T05:13:47;11.30;99.90
7762;DHT22;3925;48.636;9.516;2023-02-18T05:16:13;11.30;99.90
7762;DHT22;3925;48.636;9.516;2023-02-18T05:18:40;11.30;99.90
7762;DHT22;3925;48.636;9.516;2023-02-18T05:21:09;11.30;99.90
7762;DHT22;3925;48.636;9.516;2023-02-18T05:23:36;11.30;99.90
7762;DHT22;3925;48.636;9.516;2023-02-18T05:26:03;11.30;99.90
7762;DHT22;3925;48.636;9.516;2023-02-18T05:28:30;11.40;99.90
7762;DHT22;3925;48.636;9.516;2023-02-18T05:30:57;11.30;99.90
7762;DHT22;3925;48.636;9.516;2023-02-18T05:33:24;11.30;99.90
7762;DHT22;3925;48.636;9.516;2023-02-18T05:35:51;11.30;99.90
7762;DHT22;3925;48.636;9.516;2023-02-18T05:38:19;11.30;99.90
7762;DHT22;3925;48.636;9.516;2023-02-18T05:40:46;11.30;99.90
7762;DHT22;3925;48.636;9.516;2023-02-18T05:43:14;11.30;99.90
7762;DHT22;3925;48.636;9.516;2023-02-18T05:45:41;11.40;99.90
7762;DHT22;3925;48.636;9.516;2023-02-18T05:48:07;11.40;99.90
7762;DHT22;3925;48.636;9.516;2023-02-18T05:50:34;11.40;99.90
7762;DHT22;3925;48.636;9.516;2023-02-18T05:53:01;11.40;99.90
7762;DHT22;3925;48.636;9.516;2023-02-18T05:55:30;11.40;99.90
7762;DHT22;3925;48.636;9.516;2023-02-18T05:57:57;11.40;99.90
7762;DHT22;3925;48.636;9.516;2023-02-18T06:00:24;11.40;99.90
7762;DHT22;3925;48.636;9.516;2023-02-18T06:02:51;11.40;99.90
7762;DHT22;3925;48.636;9.516;2023-02-18T06:05:18;11.40;99.90
7762;DHT22;3925;48.636;9.516;2023-02-18T06:07:45;11.50;99.90
7762;DHT22;3925;48.636;9.516;2023-02-18T06:10:11;11.50;99.90
7762;DHT22;3925;48.636;9.516;2023-02-18T06:12:40;11.50;99.90
7762;DHT22;3925;48.636;9.516;2023-02-18T06:15:07;11.50;99.90
7762;DHT22;3925;48.636;9.516;2023-02-18T06:17:34;11.50;99.90
7762;DHT22;3925;48.636;9.516;2023-02-18T06:20:01;11.50;99.90
7762;DHT22;3925;48.636;9.516;2023-02-18T06:22:28;11.50;99.90
7762;DHT22;3925;48.636;9.516;2023-02-18T06:24:55;11.50;99.90
7762;DHT22;3925;48.636;9.516;2023-02-18T06:27:22;11.50;99.90
7762;DHT22;3925;48.636;9.516;2023-02-18T06:29:50;11.40;99.90
7762;DHT22;3925;48.636;9.516;2023-02-18T06:32:17;11.40;99.90
7762;DHT22;3925;48.636;9.516;2023-02-18T06:34:44;11.40;99.90
7762;DHT22;3925;48.636;9.516;2023-02-18T06:37:11;11.50;99.90
7762;DHT22;3925;48.636;9.516;2023-02-18T06:39:38;11.50;99.90
7762;DHT22;3925;48.636;9.516;2023-02-18T06:42:04;11.50;99.90
7762;DHT22;3925;48.636;9.516;2023-02-18T06:44:31;11.50;99.90
7762;DHT22;3925;48.636;9.516;2023-02-18T06:46:59;11.50;99.90
7762;DHT22;3925;48.636;9.516;2023-02-18T06:49:26;11.50;99.90
7762;DHT22;3925;48.636;9.516;2023-02-18T06:51:54;11.50;99.90
7762;DHT22;3925;48.636;9.516;2023-02-18T06:54:21;11.60;99.90
7762;DHT22;3925;48.636;9.516;2023-02-18T06:56:49;11.60;99.90
7762;DHT22;3925;48.636;9.516;2023-02-18T06:59:16;11.60;99.90
7762;DHT22;3925;48.636;9.516;2023-02-18T07:01:43;11.60;99.90
7762;DHT22;3925;48.636;9.516;2023-02-18T07:04:11;11.60;99.90
7762;DHT22;3925;48.636;9.516;2023-02-18T07:06:38;11.60;99.90
7762;DHT22;3925;48.636;9.516;2023-02-18T07:09:05;11.60;99.90
7762;DHT22;3925;48.636;9.516;2023-02-18T07:11:32;11.60;99.90
7762;DHT22;3925;48.636;9.516;2023-02-18T07:13:59;11.70;99.90
7762;DHT22;3925;48.636;9.516;2023-02-18T07:16:26;11.70;99.90
7762;DHT22;3925;48.636;9.516;2023-02-18T07:18:52;11.70;99.90
7762;DHT22;3925;48.636;9.516;2023-02-18T07:21:21;11.70;99.90
7762;DHT22;3925;48.636;9.516;2023-02-18T07:23:48;11.70;99.90
7762;DHT22;3925;48.636;9.516;2023-02-18T07:26:14;11.70;99.90
7762;DHT22;3925;48.636;9.516;2023-02-18T07:28:41;11.80;99.90
7762;DHT22;3925;48.636;9.516;2023-02-18T07:31:08;11.80;99.90
7762;DHT22;3925;48.636;9.516;2023-02-18T07:33:35;11.80;99.90
7762;DHT22;3925;48.636;9.516;2023-02-18T07:36:03;11.80;99.90
7762;DHT22;3925;48.636;9.516;2023-02-18T07:38:31;11.90;99.90
7762;DHT22;3925;48.636;9.516;2023-02-18T07:40:58;12.10;99.90
7762;DHT22;3925;48.636;9.516;2023-02-18T07:43:25;11.90;99.90
7762;DHT22;3925;48.636;9.516;2023-02-18T07:45:52;11.90;99.90
7762;DHT22;3925;48.636;9.516;2023-02-18T07:48:19;11.90;99.90
7762;DHT22;3925;48.636;9.516;2023-02-18T07:50:46;11.90;99.90
7762;DHT22;3925;48.636;9.516;2023-02-18T07:53:14;11.90;99.90
7762;DHT22;3925;48.636;9.516;2023-02-18T07:55:43;11.90;99.90
7762;DHT22;3925;48.636;9.516;2023-02-18T07:58:16;11.90;99.90
7762;DHT22;3925;48.636;9.516;2023-02-18T08:00:43;11.90;99.90
7762;DHT22;3925;48.636;9.516;2023-02-18T08:03:12;11.90;99.90
7762;DHT22;3925;48.636;9.516;2023-02-18T08:05:39;12.00;99.90
7762;DHT22;3925;48.636;9.516;2023-02-18T08:08:06;12.00;99.90
7762;DHT22;3925;48.636;9.516;2023-02-18T08:10:32;12.00;99.90
7762;DHT22;3925;48.636;9.516;2023-02-18T08:13:01;12.00;99.90
7762;DHT22;3925;48.636;9.516;2023-02-18T08:15:28;12.10;99.90
7762;DHT22;3925;48.636;9.516;2023-02-18T08:17:54;12.20;99.90
7762;DHT22;3925;48.636;9.516;2023-02-18T08:20:21;12.30;99.90
7762;DHT22;3925;48.636;9.516;2023-02-18T08:22:48;12.30;99.90
7762;DHT22;3925;48.636;9.516;2023-02-18T08:25:15;12.40;99.90
7762;DHT22;3925;48.636;9.516;2023-02-18T08:27:42;12.40;99.90
7762;DHT22;3925;48.636;9.516;2023-02-18T08:30:11;12.40;99.90
7762;DHT22;3925;48.636;9.516;2023-02-18T08:32:38;12.40;99.90
7762;DHT22;3925;48.636;9.516;2023-02-18T08:35:05;12.40;99.90
7762;DHT22;3925;48.636;9.516;2023-02-18T08:37:33;12.40;99.90
7762;DHT22;3925;48.636;9.516;2023-02-18T08:40:01;12.40;99.90
7762;DHT22;3925;48.636;9.516;2023-02-18T08:42:28;12.40;99.90
7762;DHT22;3925;48.636;9.516;2023-02-18T08:44:55;12.40;99.90
7762;DHT22;3925;48.636;9.516;2023-02-18T08:47:23;12.40;99.90
7762;DHT22;3925;48.636;9.516;2023-02-18T08:49:51;12.50;99.90
7762;DHT22;3925;48.636;9.516;2023-02-18T08:52:18;12.50;99.90
7762;DHT22;3925;48.636;9.516;2023-02-18T08:54:45;12.50;99.90
7762;DHT22;3925;48.636;9.516;2023-02-18T08:57:12;12.60;99.90
7762;DHT22;3925;48.636;9.516;2023-02-18T08:59:39;12.60;99.90
7762;DHT22;3925;48.636;9.516;2023-02-18T09:02:06;12.60;99.90
7762;DHT22;3925;48.636;9.516;2023-02-18T09:04:34;12.60;99.90
7762;DHT22;3925;48.636;9.516;2023-02-18T09:07:02;12.60;99.90
7762;DHT22;3925;48.636;9.516;2023-02-18T09:09:28;12.60;99.90
7762;DHT22;3925;48.636;9.516;2023-02-18T09:11:55;12.60;99.90
7762;DHT22;3925;48.636;9.516;2023-02-18T09:14:22;12.60;99.90
7762;DHT22;3925;48.636;9.516;2023-02-18T09:16:49;12.70;99.90
7762;DHT22;3925;48.636;9.516;2023-02-18T09:19:16;12.70;99.90
7762;DHT22;3925;48.636;9.516;2023-02-18T09:21:44;12.80;99.90
7762;DHT22;3925;48.636;9.516;2023-02-18T09:24:11;12.80;99.90
7762;DHT22;3925;48.636;9.516;2023-02-18T09:26:38;12.80;99.90
7762;DHT22;3925;48.636;9.516;2023-02-18T09:29:05;12.90;99.90
7762;DHT22;3925;48.636;9.516;2023-02-18T09:31:32;12.90;99.90
7762;DHT22;3925;48.636;9.516;2023-02-18T09:34:02;12.90;99.90
7762;DHT22;3925;48.636;9.516;2023-02-18T09:36:30;13.00;99.90
7762;DHT22;3925;48.636;9.516;2023-02-18T09:38:59;13.00;99.90
7762;DHT22;3925;48.636;9.516;2023-02-18T09:41:35;13.10;99.90
7762;DHT22;3925;48.636;9.516;2023-02-18T09:44:08;13.20;99.90
7762;DHT22;3925;48.636;9.516;2023-02-18T09:46:39;13.20;99.90
7762;DHT22;3925;48.636;9.516;2023-02-18T09:49:13;13.30;99.90
7762;DHT22;3925;48.636;9.516;2023-02-18T09:51:42;13.50;99.90
7762;DHT22;3925;48.636;9.516;2023-02-18T09:54:11;13.50;99.90
7762;DHT22;3925;48.636;9.516;2023-02-18T09:56:41;13.50;99.90
7762;DHT22;3925;48.636;9.516;2023-02-18T09:59:14;13.70;99.90
7762;DHT22;3925;48.636;9.516;2023-02-18T10:01:42;13.80;99.90
7762;DHT22;3925;48.636;9.516;2023-02-18T10:04:15;13.80;99.90
7762;DHT22;3925;48.636;9.516;2023-02-18T10:06:43;13.80;99.90
7762;DHT22;3925;48.636;9.516;2023-02-18T10:09:17;13.90;99.90
7762;DHT22;3925;48.636;9.516;2023-02-18T10:11:48;14.00;99.90
7762;DHT22;3925;48.636;9.516;2023-02-18T10:14:15;14.00;99.90
7762;DHT22;3925;48.636;9.516;2023-02-18T10:16:43;13.80;99.90
7762;DHT22;3925;48.636;9.516;2023-02-18T10:19:21;14.00;99.90
7762;DHT22;3925;48.636;9.516;2023-02-18T10:21:50;13.90;99.90
7762;DHT22;3925;48.636;9.516;2023-02-18T10:24:26;13.90;99.90
7762;DHT22;3925;48.636;9.516;2023-02-18T10:26:54;14.00;99.90
7762;DHT22;3925;48.636;9.516;2023-02-18T10:29:23;13.90;99.90
7762;DHT22;3925;48.636;9.516;2023-02-18T10:31:54;13.70;99.90
7762;DHT22;3925;48.636;9.516;2023-02-18T10:34:33;13.70;99.90
7762;DHT22;3925;48.636;9.516;2023-02-18T10:37:14;13.50;99.90
7762;DHT22;3925;48.636;9.516;2023-02-18T10:39:53;13.50;99.90
7762;DHT22;3925;48.636;9.516;2023-02-18T10:42:31;13.40;99.90
7762;DHT22;3925;48.636;9.516;2023-02-18T10:45:08;13.40;99.90
7762;DHT22;3925;48.636;9.516;2023-02-18T10:47:44;13.30;99.90
7762;DHT22;3925;48.636;9.516;2023-02-18T10:50:18;13.40;99.90
7762;DHT22;3925;48.636;9.516;2023-02-18T10:52:51;13.30;99.90
7762;DHT22;3925;48.636;9.516;2023-02-18T10:55:33;13.30;99.90
7762;DHT22;3925;48.636;9.516;2023-02-18T10:58:00;13.30;99.90
7762;DHT22;3925;48.636;9.516;2023-02-18T11:00:33;13.30;99.90
7762;DHT22;3925;48.636;9.516;2023-02-18T11:03:13;13.40;99.90
7762;DHT22;3925;48.636;9.516;2023-02-18T11:05:42;13.40;99.90
7762;DHT22;3925;48.636;9.516;2023-02-18T11:08:15;13.30;99.90
7762;DHT22;3925;48.636;9.516;2023-02-18T11:10:45;13.30;99.90
7762;DHT22;3925;48.636;9.516;2023-02-18T11:13:14;13.40;99.90
7762;DHT22;3925;48.636;9.516;2023-02-18T11:15:54;13.50;99.90
7762;DHT22;3925;48.636;9.516;2023-02-18T11:18:37;13.60;99.90
7762;DHT22;3925;48.636;9.516;2023-02-18T11:21:17;13.60;99.90
7762;DHT22;3925;48.636;9.516;2023-02-18T11:23:46;13.70;99.90
7762;DHT22;3925;48.636;9.516;2023-02-18T11:26:17;13.70;99.90
7762;DHT22;3925;48.636;9.516;2023-02-18T11:28:47;13.70;99.90
7762;DHT22;3925;48.636;9.516;2023-02-18T11:31:19;13.70;99.90
7762;DHT22;3925;48.636;9.516;2023-02-18T11:33:49;13.60;99.90
7762;DHT22;3925;48.636;9.516;2023-02-18T11:36:21;13.60;99.90
7762;DHT22;3925;48.636;9.516;2023-02-18T11:38:51;13.70;99.90
7762;DHT22;3925;48.636;9.516;2023-02-18T11:41:27;13.70;99.90
7762;DHT22;3925;48.636;9.516;2023-02-18T11:43:56;13.70;99.90
7762;DHT22;3925;48.636;9.516;2023-02-18T11:46:25;13.80;99.90
7762;DHT22;3925;48.636;9.516;2023-02-18T11:48:52;13.80;99.90
7762;DHT22;3925;48.636;9.516;2023-02-18T11:51:23;13.90;99.90
7762;DHT22;3925;48.636;9.516;2023-02-18T11:53:59;13.80;99.90
7762;DHT22;3925;48.636;9.516;2023-02-18T11:56:29;13.80;99.90
7762;DHT22;3925;48.636;9.516;2023-02-18T11:58:57;13.70;99.90
7762;DHT22;3925;48.636;9.516;2023-02-18T12:01:30;13.70;99.90
7762;DHT22;3925;48.636;9.516;2023-02-18T12:04:07;13.60;99.90
7762;DHT22;3925;48.636;9.516;2023-02-18T12:06:40;13.80;99.90
7762;DHT22;3925;48.636;9.516;2023-02-18T12:09:18;13.90;99.90
7762;DHT22;3925;48.636;9.516;2023-02-18T12:11:50;13.90;99.90
7762;DHT22;3925;48.636;9.516;2023-02-18T12:14:19;13.90;99.90
7762;DHT22;3925;48.636;9.516;2023-02-18T12:17:02;13.90;99.90
7762;DHT22;3925;48.636;9.516;2023-02-18T12:19:41;13.90;99.90
7762;DHT22;3925;48.636;9.516;2023-02-18T12:22:15;13.90;99.90
7762;DHT22;3925;48.636;9.516;2023-02-18T12:24:55;13.80;99.90
7762;DHT22;3925;48.636;9.516;2023-02-18T12:27:32;13.90;99.90
7762;DHT22;3925;48.636;9.516;2023-02-18T12:30:25;13.80;99.90
7762;DHT22;3925;48.636;9.516;2023-02-18T12:33:00;13.70;99.90
7762;DHT22;3925;48.636;9.516;2023-02-18T12:35:43;13.70;99.90
7762;DHT22;3925;48.636;9.516;2023-02-18T12:38:52;13.80;99.90
7762;DHT22;3925;48.636;9.516;2023-02-18T12:41:41;13.80;99.90
7762;DHT22;3925;48.636;9.516;2023-02-18T12:44:24;13.80;99.90
7762;DHT22;3925;48.636;9.516;2023-02-18T12:47:05;13.70;99.90
7762;DHT22;3925;48.636;9.516;2023-02-18T12:49:47;13.70;99.90
7762;DHT22;3925;48.636;9.516;2023-02-18T12:52:26;13.70;99.90
7762;DHT22;3925;48.636;9.516;2023-02-18T12:55:26;13.60;99.90
7762;DHT22;3925;48.636;9.516;2023-02-18T12:58:07;13.50;99.90
7762;DHT22;3925;48.636;9.516;2023-02-18T13:00:56;13.60;99.90
7762;DHT22;3925;48.636;9.516;2023-02-18T13:03:52;13.60;99.90
7762;DHT22;3925;48.636;9.516;2023-02-18T13:06:37;13.60;99.90
7762;DHT22;3925;48.636;9.516;2023-02-18T13:09:12;13.60;99.90
7762;DHT22;3925;48.636;9.516;2023-02-18T13:11:48;13.60;99.90
7762;DHT22;3925;48.636;9.516;2023-02-18T13:14:21;13.70;99.90
7762;DHT22;3925;48.636;9.516;2023-02-18T13:16:53;13.70;99.90
7762;DHT22;3925;48.636;9.516;2023-02-18T13:19:23;13.70;99.90
7762;DHT22;3925;48.636;9.516;2023-02-18T13:21:53;13.70;99.90
7762;DHT22;3925;48.636;9.516;2023-02-18T13:24:27;13.80;99.90
7762;DHT22;3925;48.636;9.516;2023-02-18T13:27:03;13.90;99.90
7762;DHT22;3925;48.636;9.516;2023-02-18T13:29:36;14.00;99.90
7762;DHT22;3925;48.636;9.516;2023-02-18T13:32:13;14.00;99.90
7762;DHT22;3925;48.636;9.516;2023-02-18T13:34:48;14.20;99.90
7762;DHT22;3925;48.636;9.516;2023-02-18T13:37:21;14.10;99.90
7762;DHT22;3925;48.636;9.516;2023-02-18T13:39:55;14.20;99.90
7762;DHT22;3925;48.636;9.516;2023-02-18T13:42:33;14.10;99.90
7762;DHT22;3925;48.636;9.516;2023-02-18T13:45:26;14.10;99.90
7762;DHT22;3925;48.636;9.516;2023-02-18T13:47:56;14.10;99.90
7762;DHT22;3925;48.636;9.516;2023-02-18T13:50:27;14.20;99.90
7762;DHT22;3925;48.636;9.516;2023-02-18T13:53:20;14.20;99.90
7762;DHT22;3925;48.636;9.516;2023-02-18T13:55:54;14.20;99.90
7762;DHT22;3925;48.636;9.516;2023-02-18T13:58:27;14.20;99.90
7762;DHT22;3925;48.636;9.516;2023-02-18T14:01:00;14.40;99.90
7762;DHT22;3925;48.636;9.516;2023-02-18T14:03:58;14.50;99.90
7762;DHT22;3925;48.636;9.516;2023-02-18T14:06:28;14.70;99.90
7762;DHT22;3925;48.636;9.516;2023-02-18T14:12:26;14.70;99.90
7762;DHT22;3925;48.636;9.516;2023-02-18T14:15:01;14.60;99.90
7762;DHT22;3925;48.636;9.516;2023-02-18T14:17:41;14.60;99.90
7762;DHT22;3925;48.636;9.516;2023-02-18T14:20:33;14.70;99.90
7762;DHT22;3925;48.636;9.516;2023-02-18T14:23:42;14.70;99.90
7762;DHT22;3925;48.636;9.516;2023-02-18T14:26:20;14.60;99.90
7762;DHT22;3925;48.636;9.516;2023-02-18T14:28:52;14.50;99.90
7762;DHT22;3925;48.636;9.516;2023-02-18T14:31:44;14.50;99.90
7762;DHT22;3925;48.636;9.516;2023-02-18T14:34:52;14.50;99.90
7762;DHT22;3925;48.636;9.516;2023-02-18T14:37:56;14.50;99.90
7762;DHT22;3925;48.636;9.516;2023-02-18T14:40:54;14.50;99.90
7762;DHT22;3925;48.636;9.516;2023-02-18T14:43:43;14.50;99.90
7762;DHT22;3925;48.636;9.516;2023-02-18T14:46:21;14.50;99.90
7762;DHT22;3925;48.636;9.516;2023-02-18T14:49:12;14.50;99.90
7762;DHT22;3925;48.636;9.516;2023-02-18T14:51:44;14.60;99.90
7762;DHT22;3925;48.636;9.516;2023-02-18T14:54:17;14.60;99.90
7762;DHT22;3925;48.636;9.516;2023-02-18T14:56:52;14.60;99.90
7762;DHT22;3925;48.636;9.516;2023-02-18T14:59:21;14.50;99.90
7762;DHT22;3925;48.636;9.516;2023-02-18T15:01:53;14.50;99.90
7762;DHT22;3925;48.636;9.516;2023-02-18T15:04:21;14.50;99.90
7762;DHT22;3925;48.636;9.516;2023-02-18T15:06:57;14.40;99.90
7762;DHT22;3925;48.636;9.516;2023-02-18T15:09:26;14.30;99.90
7762;DHT22;3925;48.636;9.516;2023-02-18T15:11:55;14.20;99.90
7762;DHT22;3925;48.636;9.516;2023-02-18T15:14:28;14.10;99.90
7762;DHT22;3925;48.636;9.516;2023-02-18T15:16:56;14.10;99.90
7762;DHT22;3925;48.636;9.516;2023-02-18T15:19:26;14.10;99.90
7762;DHT22;3925;48.636;9.516;2023-02-18T15:21:55;14.00;99.90
7762;DHT22;3925;48.636;9.516;2023-02-18T15:24:26;13.90;99.90
7762;DHT22;3925;48.636;9.516;2023-02-18T15:26:56;14.00;99.90
7762;DHT22;3925;48.636;9.516;2023-02-18T15:29:25;14.00;99.90
7762;DHT22;3925;48.636;9.516;2023-02-18T15:31:54;14.00;99.90
7762;DHT22;3925;48.636;9.516;2023-02-18T15:34:41;13.90;99.90
7762;DHT22;3925;48.636;9.516;2023-02-18T15:37:11;13.90;99.90
7762;DHT22;3925;48.636;9.516;2023-02-18T15:39:40;13.80;99.90
7762;DHT22;3925;48.636;9.516;2023-02-18T15:42:14;13.80;99.90
7762;DHT22;3925;48.636;9.516;2023-02-18T15:44:45;13.70;99.90
7762;DHT22;3925;48.636;9.516;2023-02-18T15:47:13;13.70;99.90
7762;DHT22;3925;48.636;9.516;2023-02-18T15:49:45;13.70;99.90
7762;DHT22;3925;48.636;9.516;2023-02-18T15:52:13;13.70;99.90
7762;DHT22;3925;48.636;9.516;2023-02-18T15:54:42;13.70;99.90
7762;DHT22;3925;48.636;9.516;2023-02-18T15:57:12;13.70;99.90
7762;DHT22;3925;48.636;9.516;2023-02-18T15:59:45;13.60;99.90
7762;DHT22;3925;48.636;9.516;2023-02-18T16:02:17;13.60;99.90
7762;DHT22;3925;48.636;9.516;2023-02-18T16:04:47;13.60;99.90
7762;DHT22;3925;48.636;9.516;2023-02-18T16:07:21;13.60;99.90
7762;DHT22;3925;48.636;9.516;2023-02-18T16:09:56;13.60;99.90
7762;DHT22;3925;48.636;9.516;2023-02-18T16:12:32;13.60;99.90
7762;DHT22;3925;48.636;9.516;2023-02-18T16:14:59;13.60;99.90
7762;DHT22;3925;48.636;9.516;2023-02-18T16:17:27;13.60;99.90
7762;DHT22;3925;48.636;9.516;2023-02-18T16:19:56;13.60;99.90
7762;DHT22;3925;48.636;9.516;2023-02-18T16:22:29;13.50;99.90
7762;DHT22;3925;48.636;9.516;2023-02-18T16:25:01;13.50;99.90
7762;DHT22;3925;48.636;9.516;2023-02-18T16:27:34;13.50;99.90
7762;DHT22;3925;48.636;9.516;2023-02-18T16:30:05;13.40;99.90
7762;DHT22;3925;48.636;9.516;2023-02-18T16:32:32;13.40;99.90
7762;DHT22;3925;48.636;9.516;2023-02-18T16:34:59;13.40;99.90
7762;DHT22;3925;48.636;9.516;2023-02-18T16:37:28;13.40;99.90